createdAt,value
2023-03-06T00:01:48.775Z,64.28
2023-03-06T00:04:51.444Z,64.22
2023-03-06T00:07:53.613Z,64.14
2023-03-06T00:10:56.645Z,64.52
2023-03-06T00:13:58.871Z,65.44
2023-03-06T00:17:01.288Z,65.49
2023-03-06T00:20:04.995Z,65.16
2023-03-06T00:23:08.579Z,65.80
2023-03-06T00:26:10.827Z,65.66
2023-03-06T00:29:14.304Z,65.74
2023-03-06T00:32:16.512Z,65.95
2023-03-06T00:35:19.144Z,65.77
2023-03-06T00:38:21.308Z,65.95
2023-03-06T00:41:24.998Z,65.65
2023-03-06T00:44:27.138Z,65.97
2023-03-06T00:47:30.085Z,65.24
2023-03-06T00:50:35.088Z,65.33
2023-03-06T00:53:37.557Z,65.44
2023-03-06T00:56:39.830Z,65.14
2023-03-06T00:59:42.461Z,65.15
2023-03-06T01:02:44.637Z,66.04
2023-03-06T01:05:47.050Z,65.86
2023-03-06T01:08:49.260Z,65.36
2023-03-06T01:11:52.785Z,65.12
2023-03-06T01:14:54.847Z,65.27
2023-03-06T01:17:57.305Z,64.77
2023-03-06T01:20:59.430Z,64.60
2023-03-06T01:24:02.076Z,64.79
2023-03-06T01:27:04.249Z,65.29
2023-03-06T01:30:07.359Z,65.18
2023-03-06T01:33:09.570Z,65.26
2023-03-06T01:36:12.797Z,64.74
2023-03-06T01:39:14.960Z,65.75
2023-03-06T01:42:17.393Z,65.02
2023-03-06T01:45:19.447Z,64.94
2023-03-06T01:48:24.068Z,64.81
2023-03-06T01:51:32.016Z,64.72
2023-03-06T01:54:40.394Z,64.42
2023-03-06T01:57:45.273Z,64.36
2023-03-06T02:00:47.894Z,64.25
2023-03-06T02:03:51.290Z,64.79
2023-03-06T02:06:55.040Z,65.20
2023-03-06T02:09:58.388Z,64.21
2023-03-06T02:13:00.950Z,63.83
2023-03-06T02:16:03.707Z,64.88
2023-03-06T02:19:08.968Z,63.95
2023-03-06T02:22:11.611Z,64.21
2023-03-06T02:25:33.896Z,63.53
2023-03-06T02:28:36.230Z,63.94
2023-03-06T02:31:38.669Z,62.71
2023-03-06T02:34:54.917Z,63.72
2023-03-06T02:38:02.441Z,64.14
2023-03-06T02:41:08.266Z,62.74
2023-03-06T02:44:10.717Z,62.09
2023-03-06T02:47:12.993Z,62.22
2023-03-06T02:50:15.510Z,62.91
2023-03-06T02:53:19.602Z,62.53
2023-03-06T02:56:22.462Z,62.35
2023-03-06T02:59:24.853Z,62.84
2023-03-06T03:02:27.894Z,63.00
2023-03-06T03:05:30.521Z,62.70
2023-03-06T03:08:34.705Z,62.09
2023-03-06T03:11:37.229Z,62.37
2023-03-06T03:14:40.057Z,62.69
2023-03-06T03:17:42.727Z,62.34
2023-03-06T03:20:45.160Z,62.16
2023-03-06T03:23:47.327Z,61.75
2023-03-06T03:26:49.922Z,62.39
2023-03-06T03:29:53.014Z,62.19
2023-03-06T03:32:55.579Z,63.34
2023-03-06T03:35:58.985Z,62.59
2023-03-06T03:39:02.010Z,62.96
2023-03-06T03:42:04.453Z,62.39
2023-03-06T03:45:07.790Z,62.13
2023-03-06T03:48:10.114Z,61.79
2023-03-06T03:51:16.435Z,62.74
2023-03-06T03:54:19.378Z,62.40
2023-03-06T03:57:22.456Z,62.61
2023-03-06T04:00:25.585Z,62.67
2023-03-06T04:03:29.081Z,62.17
2023-03-06T04:06:31.418Z,63.10
2023-03-06T04:09:34.321Z,62.31
2023-03-06T04:12:37.241Z,62.45
2023-03-06T04:15:39.744Z,61.73
2023-03-06T04:18:42.439Z,61.94
2023-03-06T04:21:45.084Z,63.24
2023-03-06T04:24:49.822Z,62.06
2023-03-06T04:27:52.745Z,61.75
2023-03-06T04:30:54.984Z,62.38
2023-03-06T04:33:58.146Z,61.09
2023-03-06T04:37:00.808Z,61.63
2023-03-06T04:40:04.203Z,62.07
2023-03-06T04:43:06.543Z,61.95
2023-03-06T04:46:10.945Z,61.93
2023-03-06T04:49:13.144Z,61.69
2023-03-06T04:52:15.600Z,62.82
2023-03-06T04:55:18.762Z,62.61
2023-03-06T04:58:21.307Z,63.18
2023-03-06T05:01:23.538Z,64.12
2023-03-06T05:04:26.039Z,63.19
2023-03-06T05:07:28.352Z,64.12
2023-03-06T05:10:30.800Z,65.36
2023-03-06T05:13:33.385Z,64.96
2023-03-06T05:16:35.956Z,64.40
2023-03-06T05:19:38.416Z,64.12
2023-03-06T05:22:41.746Z,64.41
2023-03-06T05:25:44.044Z,64.87
2023-03-06T05:28:46.564Z,64.27
2023-03-06T05:31:48.824Z,65.74
2023-03-06T05:34:51.537Z,65.68
2023-03-06T05:37:53.827Z,66.68
2023-03-06T05:40:56.603Z,65.23
2023-03-06T05:43:59.058Z,65.86
2023-03-06T05:47:02.468Z,65.14
2023-03-06T05:50:05.509Z,65.75
2023-03-06T05:53:08.064Z,67.13
2023-03-06T05:56:10.626Z,66.78
2023-03-06T05:59:13.117Z,66.59
2023-03-06T06:02:15.949Z,67.19
2023-03-06T06:05:18.535Z,66.58
2023-03-06T06:08:21.163Z,66.71
2023-03-06T06:11:23.652Z,67.17
2023-03-06T06:14:26.167Z,67.54
2023-03-06T06:17:28.716Z,66.83
2023-03-06T06:20:30.837Z,66.57
2023-03-06T06:23:33.385Z,66.23
2023-03-06T06:26:35.577Z,65.52
2023-03-06T06:29:38.068Z,65.57
2023-03-06T06:32:40.653Z,65.23
2023-03-06T06:35:43.236Z,66.10
2023-03-06T06:38:46.317Z,65.41
2023-03-06T06:42:02.617Z,65.19
2023-03-06T06:45:12.799Z,64.52
2023-03-06T06:48:16.691Z,65.00
2023-03-06T06:51:20.843Z,65.05
2023-03-06T06:54:23.411Z,66.01
2023-03-06T06:57:25.697Z,65.24
2023-03-06T07:00:28.577Z,64.63
2023-03-06T07:03:30.852Z,63.83
2023-03-06T07:06:33.570Z,63.32
2023-03-06T07:09:35.854Z,63.07
2023-03-06T07:12:38.344Z,63.56
2023-03-06T07:15:40.560Z,63.61
2023-03-06T07:18:43.912Z,64.31
2023-03-06T07:21:46.060Z,64.41
2023-03-06T07:24:48.648Z,63.53
2023-03-06T07:27:54.143Z,63.79
2023-03-06T07:30:56.978Z,65.26
2023-03-06T07:33:59.539Z,64.45
2023-03-06T07:37:02.040Z,64.82
2023-03-06T07:40:06.223Z,65.33
2023-03-06T07:43:18.683Z,66.17
2023-03-06T07:46:22.281Z,65.94
2023-03-06T07:49:24.841Z,65.41
2023-03-06T07:52:27.045Z,67.23
2023-03-06T07:55:29.549Z,65.78
2023-03-06T07:58:33.669Z,66.41
2023-03-06T08:01:40.218Z,66.71
2023-03-06T08:04:42.842Z,66.84
2023-03-06T08:07:45.719Z,67.37
2023-03-06T08:10:49.263Z,67.59
2023-03-06T08:13:53.690Z,68.61
2023-03-06T08:16:56.786Z,68.74
2023-03-06T08:19:59.107Z,68.43
2023-03-06T08:23:01.580Z,68.00
2023-03-06T08:26:07.110Z,69.51
2023-03-06T08:29:09.976Z,69.99
2023-03-06T08:32:12.299Z,67.64
2023-03-06T08:35:14.824Z,67.54
2023-03-06T08:38:17.053Z,66.97
2023-03-06T08:41:20.524Z,65.67
2023-03-06T08:44:22.743Z,63.87
2023-03-06T08:47:25.503Z,63.74
2023-03-06T08:50:27.882Z,63.74
2023-03-06T08:53:42.094Z,62.32
2023-03-06T08:56:45.734Z,62.25
2023-03-06T08:59:48.195Z,60.66
2023-03-06T09:02:51.141Z,59.22
2023-03-06T09:05:53.663Z,59.10
2023-03-06T09:08:56.333Z,59.18
2023-03-06T09:11:58.812Z,56.75
2023-03-06T09:15:03.683Z,56.99
2023-03-06T09:18:06.223Z,56.86
2023-03-06T09:21:10.032Z,56.36
2023-03-06T09:24:12.702Z,54.91
2023-03-06T09:27:14.927Z,55.23
2023-03-06T09:30:18.890Z,53.77
2023-03-06T09:33:21.292Z,54.06
2023-03-06T09:36:23.933Z,53.93
2023-03-06T09:39:26.451Z,55.06
2023-03-06T09:42:29.168Z,54.44
2023-03-06T09:45:37.047Z,54.40
2023-03-06T09:48:58.053Z,53.71
2023-03-06T09:52:39.070Z,53.74
2023-03-06T09:55:44.169Z,52.64
2023-03-06T09:58:54.024Z,51.92
2023-03-06T10:01:59.361Z,50.72
2023-03-06T10:05:06.759Z,51.21
2023-03-06T10:08:23.792Z,50.43
2023-03-06T10:11:38.358Z,49.49
2023-03-06T10:14:48.474Z,50.34
2023-03-06T10:17:51.980Z,52.18
2023-03-06T10:21:18.670Z,52.84
2023-03-06T10:24:43.299Z,53.39
2023-03-06T10:27:48.615Z,54.52
2023-03-06T10:31:03.173Z,55.30
2023-03-06T10:34:08.461Z,54.38
2023-03-06T10:37:22.226Z,55.73
2023-03-06T10:40:35.327Z,56.38
2023-03-06T10:43:45.832Z,57.04
2023-03-06T10:46:51.539Z,56.79
2023-03-06T10:50:08.045Z,57.19
2023-03-06T10:53:24.605Z,56.60
2023-03-06T10:56:35.556Z,57.39
2023-03-06T10:59:51.229Z,57.63
2023-03-06T11:03:06.532Z,55.18
2023-03-06T11:06:31.700Z,56.14
2023-03-06T11:09:34.457Z,56.08
2023-03-06T11:12:38.933Z,56.15
2023-03-06T11:16:05.309Z,55.01
2023-03-06T11:19:28.770Z,54.05
2023-03-06T11:22:31.614Z,54.39
2023-03-06T11:25:39.886Z,54.16
2023-03-06T11:28:45.932Z,54.01
2023-03-06T11:31:51.577Z,55.19
2023-03-06T11:35:04.145Z,54.73
2023-03-06T11:38:14.304Z,54.04
2023-03-06T11:41:26.108Z,54.77
2023-03-06T11:44:36.880Z,53.41
2023-03-06T11:48:14.812Z,54.20
2023-03-06T11:51:31.441Z,54.16
2023-03-06T11:54:34.290Z,54.26
2023-03-06T11:57:48.171Z,54.77
2023-03-06T12:01:00.509Z,55.08
2023-03-06T12:04:37.364Z,54.45
2023-03-06T12:07:48.575Z,54.55
2023-03-06T12:11:05.458Z,53.69
2023-03-06T12:14:40.276Z,53.14
2023-03-06T12:18:13.841Z,54.27
2023-03-06T12:21:44.751Z,53.97
2023-03-06T12:25:09.536Z,53.29
2023-03-06T12:28:24.709Z,54.63
2023-03-06T12:31:27.379Z,54.54
2023-03-06T12:34:52.504Z,54.52
2023-03-06T12:38:07.696Z,53.06
2023-03-06T12:41:35.363Z,54.13
2023-03-06T12:44:59.383Z,51.75
2023-03-06T12:48:02.121Z,52.97
2023-03-06T12:51:07.691Z,53.35
2023-03-06T12:54:12.632Z,55.06
2023-03-06T12:57:15.814Z,55.01
2023-03-06T13:00:34.078Z,55.60
2023-03-06T13:03:55.351Z,56.18
2023-03-06T13:07:19.079Z,55.79
2023-03-06T13:10:35.631Z,55.97
2023-03-06T13:13:46.353Z,56.26
2023-03-06T13:16:48.961Z,58.47
2023-03-06T13:20:13.024Z,60.72
2023-03-06T13:23:34.144Z,61.48
2023-03-06T13:26:36.368Z,62.24
2023-03-06T13:29:38.798Z,63.97
2023-03-06T13:32:41.208Z,63.04
2023-03-06T13:35:52.822Z,61.77
2023-03-06T13:39:11.807Z,62.32
2023-03-06T13:42:57.083Z,62.65
2023-03-06T13:46:19.469Z,63.55
2023-03-06T13:49:24.718Z,63.84
2023-03-06T13:52:33.571Z,64.43
2023-03-06T13:56:04.276Z,65.08
2023-03-06T13:59:35.789Z,64.01
2023-03-06T14:03:07.694Z,64.61
2023-03-06T14:06:35.049Z,65.17
2023-03-06T14:09:52.321Z,65.13
2023-03-06T14:13:02.115Z,65.89
2023-03-06T14:16:17.496Z,66.67
2023-03-06T14:19:20.830Z,67.59
2023-03-06T14:22:24.928Z,67.68
2023-03-06T14:25:31.377Z,67.63
2023-03-06T14:28:35.670Z,68.66
2023-03-06T14:31:42.736Z,68.64
2023-03-06T14:34:46.733Z,68.56
2023-03-06T14:37:55.591Z,68.63
2023-03-06T14:40:58.526Z,68.94
2023-03-06T14:44:22.224Z,69.45
2023-03-06T14:47:33.837Z,68.76
2023-03-06T14:50:36.747Z,68.93
2023-03-06T14:53:39.061Z,69.47
2023-03-06T14:56:44.045Z,69.83
2023-03-06T14:59:56.208Z,70.05
2023-03-06T15:02:59.440Z,69.85
2023-03-06T15:06:02.931Z,71.06
2023-03-06T15:09:15.858Z,70.98
2023-03-06T15:12:21.319Z,70.27
2023-03-06T15:15:26.316Z,70.60
2023-03-06T15:18:35.453Z,71.31
2023-03-06T15:21:39.067Z,71.22
2023-03-06T15:24:41.357Z,71.72
2023-03-06T15:28:03.331Z,71.84
2023-03-06T15:31:24.690Z,72.10
2023-03-06T15:34:27.599Z,72.71
2023-03-06T15:37:29.822Z,73.48
2023-03-06T15:40:32.974Z,72.63
2023-03-06T15:43:39.349Z,72.45
2023-03-06T15:46:42.186Z,72.74
2023-03-06T15:49:44.738Z,73.24
2023-03-06T15:52:48.672Z,73.42
2023-03-06T15:55:51.668Z,73.75
2023-03-06T15:58:54.909Z,74.54
2023-03-06T16:01:59.554Z,74.55
2023-03-06T16:05:02.740Z,75.08
2023-03-06T16:08:05.905Z,74.49
2023-03-06T16:11:17.232Z,74.94
2023-03-06T16:14:23.566Z,75.41
2023-03-06T16:17:26.189Z,75.93
2023-03-06T16:20:29.600Z,76.44
2023-03-06T16:23:31.947Z,76.07
2023-03-06T16:26:35.516Z,76.51
2023-03-06T16:29:37.978Z,76.33
2023-03-06T16:32:40.663Z,76.82
2023-03-06T16:35:46.508Z,78.10
2023-03-06T16:38:49.638Z,77.89
2023-03-06T16:41:52.751Z,78.52
2023-03-06T16:44:54.933Z,77.96
2023-03-06T16:47:58.798Z,77.86
2023-03-06T16:51:01.921Z,78.29
2023-03-06T16:54:04.621Z,78.25
2023-03-06T16:57:06.842Z,78.37
2023-03-06T17:00:11.368Z,78.48
2023-03-06T17:03:13.558Z,78.94
2023-03-06T17:06:21.730Z,78.67
2023-03-06T17:09:23.960Z,78.48
2023-03-06T17:12:26.410Z,77.77
2023-03-06T17:15:28.833Z,77.44
2023-03-06T17:18:31.641Z,77.91
2023-03-06T17:21:35.370Z,78.49
2023-03-06T17:24:38.226Z,79.16
2023-03-06T17:27:40.536Z,78.88
2023-03-06T17:30:43.052Z,78.31
2023-03-06T17:33:46.315Z,78.59
2023-03-06T17:36:48.752Z,78.58
2023-03-06T17:39:51.082Z,78.83
2023-03-06T17:42:53.769Z,79.48
2023-03-06T17:45:55.919Z,79.19
2023-03-06T17:48:58.376Z,80.21
2023-03-06T17:52:02.826Z,79.64
2023-03-06T17:55:06.751Z,80.78
2023-03-06T17:58:11.387Z,80.10
2023-03-06T18:01:18.864Z,79.92
2023-03-06T18:04:21.345Z,80.49
2023-03-06T18:07:24.034Z,80.65
2023-03-06T18:10:26.552Z,80.94
2023-03-06T18:13:28.739Z,80.65
2023-03-06T18:16:31.708Z,80.44
2023-03-06T18:19:33.983Z,80.08
2023-03-06T18:22:36.425Z,79.66
2023-03-06T18:25:38.623Z,79.33
2023-03-06T18:28:47.518Z,79.33
2023-03-06T18:31:50.354Z,79.88
2023-03-06T18:34:55.032Z,79.15
2023-03-06T18:37:57.205Z,80.01
2023-03-06T18:40:59.717Z,79.73
2023-03-06T18:44:02.506Z,79.74
2023-03-06T18:47:05.179Z,80.79
2023-03-06T18:50:07.724Z,79.56
2023-03-06T18:53:10.164Z,79.24
2023-03-06T18:56:21.338Z,79.48
2023-03-06T18:59:23.892Z,79.93
2023-03-06T19:02:26.288Z,81.22
2023-03-06T19:05:28.849Z,79.77
2023-03-06T19:08:31.045Z,81.06
2023-03-06T19:11:34.128Z,84.14
2023-03-06T19:14:36.700Z,84.72
2023-03-06T19:17:39.269Z,83.87
2023-03-06T19:20:42.198Z,83.80
2023-03-06T19:23:45.092Z,83.46
2023-03-06T19:26:47.272Z,86.02
2023-03-06T19:29:49.743Z,86.62
2023-03-06T19:32:53.442Z,88.01
2023-03-06T19:35:55.985Z,87.72
2023-03-06T19:38:59.963Z,85.78
2023-03-06T19:42:04.562Z,86.31
2023-03-06T19:45:07.719Z,86.61
2023-03-06T19:48:12.368Z,87.23
2023-03-06T19:51:14.601Z,87.49
2023-03-06T19:54:17.398Z,87.13
2023-03-06T19:57:20.256Z,88.00
2023-03-06T20:00:22.734Z,87.58
2023-03-06T20:03:25.220Z,86.56
2023-03-06T20:06:33.379Z,85.34
2023-03-06T20:09:35.903Z,86.79
2023-03-06T20:12:38.567Z,87.04
2023-03-06T20:15:41.078Z,87.89
2023-03-06T20:18:43.436Z,88.49
2023-03-06T20:21:45.945Z,89.07
2023-03-06T20:24:48.145Z,89.83
2023-03-06T20:27:50.586Z,88.84
2023-03-06T20:30:52.775Z,89.28
2023-03-06T20:33:58.355Z,90.27
2023-03-06T20:37:01.010Z,90.48
2023-03-06T20:40:04.351Z,89.95
2023-03-06T20:43:07.318Z,89.52
2023-03-06T20:46:11.081Z,89.27
2023-03-06T20:49:14.478Z,89.26
2023-03-06T20:52:16.791Z,88.31
2023-03-06T20:55:18.901Z,87.06
2023-03-06T20:58:23.247Z,88.05
2023-03-06T21:01:38.401Z,87.66
2023-03-06T21:04:41.119Z,87.47
2023-03-06T21:07:43.417Z,86.58
2023-03-06T21:10:46.731Z,85.06
2023-03-06T21:13:48.966Z,85.71
2023-03-06T21:16:51.460Z,86.01
2023-03-06T21:19:53.720Z,86.93
2023-03-06T21:22:56.317Z,87.30
2023-03-06T21:25:58.529Z,87.35
2023-03-06T21:29:01.917Z,88.81
2023-03-06T21:32:04.549Z,87.67
2023-03-06T21:35:07.105Z,87.32
2023-03-06T21:38:09.615Z,87.88
2023-03-06T21:41:17.517Z,87.92
2023-03-06T21:44:19.830Z,87.81
2023-03-06T21:47:22.259Z,87.90
2023-03-06T21:50:25.632Z,89.01
2023-03-06T21:53:27.985Z,89.20
2023-03-06T21:56:30.172Z,89.78
2023-03-06T21:59:32.664Z,91.12
2023-03-06T22:02:35.480Z,90.45
2023-03-06T22:05:37.948Z,91.04
2023-03-06T22:08:41.145Z,90.61
2023-03-06T22:11:43.609Z,90.40
2023-03-06T22:14:46.079Z,90.30
2023-03-06T22:17:48.615Z,91.19
2023-03-06T22:20:52.127Z,91.01
2023-03-06T22:23:57.325Z,90.59
2023-03-06T22:26:59.480Z,92.21
2023-03-06T22:30:01.972Z,92.17
2023-03-06T22:33:04.341Z,91.22
2023-03-06T22:36:09.974Z,91.40
2023-03-06T22:39:13.346Z,90.82
2023-03-06T22:42:15.668Z,91.76
2023-03-06T22:45:17.707Z,93.01
2023-03-06T22:48:20.943Z,93.46
2023-03-06T22:51:23.126Z,92.69
2023-03-06T22:54:25.899Z,92.04
2023-03-06T22:57:28.067Z,90.91
2023-03-06T23:00:30.488Z,91.28
2023-03-06T23:03:32.615Z,91.58
2023-03-06T23:06:37.592Z,90.80
2023-03-06T23:09:39.739Z,90.60
2023-03-06T23:13:00.489Z,90.12
2023-03-06T23:16:21.396Z,90.63
2023-03-06T23:19:42.278Z,90.13
2023-03-06T23:23:03.188Z,89.83
2023-03-06T23:26:19.332Z,90.62
2023-03-06T23:29:22.373Z,91.34
2023-03-06T23:32:24.826Z,91.71
2023-03-06T23:35:27.374Z,91.89
2023-03-06T23:38:30.078Z,92.82
2023-03-06T23:41:32.645Z,93.52
2023-03-06T23:44:35.679Z,93.09
2023-03-06T23:47:38.128Z,93.84
2023-03-06T23:50:41.008Z,94.41
2023-03-06T23:53:45.385Z,94.58
2023-03-06T23:56:47.555Z,93.62
2023-03-06T23:59:50.128Z,93.95
